sensor_id;sensor_type;location;lat;lon;timestamp;temperature;humidity
18781;DHT22;9519;51.890;8.970;2022-07-04T00:02:22;17.80;81.60
18781;DHT22;9519;51.890;8.970;2022-07-04T00:07:24;17.70;81.90
18781;DHT22;9519;51.890;8.970;2022-07-04T00:12:26;17.60;82.90
18781;DHT22;9519;51.890;8.970;2022-07-04T00:17:30;17.50;82.50
18781;DHT22;9519;51.890;8.970;2022-07-04T00:22:32;17.40;82.90
18781;DHT22;9519;51.890;8.970;2022-07-04T00:27:35;17.30;83.20
18781;DHT22;9519;51.890;8.970;2022-07-04T00:32:38;17.20;83.70
18781;DHT22;9519;51.890;8.970;2022-07-04T00:37:40;17.10;84.20
18781;DHT22;9519;51.890;8.970;2022-07-04T00:42:42;17.10;84.60
18781;DHT22;9519;51.890;8.970;2022-07-04T00:47:46;17.00;84.90
18781;DHT22;9519;51.890;8.970;2022-07-04T00:52:48;16.90;85.30
18781;DHT22;9519;51.890;8.970;2022-07-04T00:57:50;16.80;85.80
18781;DHT22;9519;51.890;8.970;2022-07-04T01:02:54;16.80;86.40
18781;DHT22;9519;51.890;8.970;2022-07-04T01:07:57;16.70;86.70
18781;DHT22;9519;51.890;8.970;2022-07-04T01:13:00;16.60;87.00
18781;DHT22;9519;51.890;8.970;2022-07-04T01:18:03;16.50;87.20
18781;DHT22;9519;51.890;8.970;2022-07-04T01:23:07;16.50;87.60
18781;DHT22;9519;51.890;8.970;2022-07-04T01:28:09;16.40;88.00
18781;DHT22;9519;51.890;8.970;2022-07-04T01:33:13;16.30;88.20
18781;DHT22;9519;51.890;8.970;2022-07-04T01:38:19;16.20;89.20
18781;DHT22;9519;51.890;8.970;2022-07-04T01:43:21;16.10;88.90
18781;DHT22;9519;51.890;8.970;2022-07-04T01:48:23;16.10;89.20
18781;DHT22;9519;51.890;8.970;2022-07-04T01:53:27;16.00;89.50
18781;DHT22;9519;51.890;8.970;2022-07-04T01:58:29;15.90;89.90
18781;DHT22;9519;51.890;8.970;2022-07-04T02:03:31;15.80;90.00
18781;DHT22;9519;51.890;8.970;2022-07-04T02:08:34;15.80;90.30
18781;DHT22;9519;51.890;8.970;2022-07-04T02:13:50;15.80;90.60
18781;DHT22;9519;51.890;8.970;2022-07-04T02:18:55;15.70;90.70
18781;DHT22;9519;51.890;8.970;2022-07-04T02:23:59;15.70;90.90
18781;DHT22;9519;51.890;8.970;2022-07-04T02:29:01;15.60;91.20
18781;DHT22;9519;51.890;8.970;2022-07-04T02:34:03;15.60;91.30
18781;DHT22;9519;51.890;8.970;2022-07-04T02:39:07;15.60;91.40
18781;DHT22;9519;51.890;8.970;2022-07-04T02:44:09;15.60;91.60
18781;DHT22;9519;51.890;8.970;2022-07-04T02:49:11;15.60;91.90
18781;DHT22;9519;51.890;8.970;2022-07-04T02:54:15;15.60;92.20
18781;DHT22;9519;51.890;8.970;2022-07-04T02:59:17;15.60;92.50
18781;DHT22;9519;51.890;8.970;2022-07-04T03:04:19;15.70;92.60
18781;DHT22;9519;51.890;8.970;2022-07-04T03:09:22;15.70;92.80
18781;DHT22;9519;51.890;8.970;2022-07-04T03:14:27;15.80;93.00
18781;DHT22;9519;51.890;8.970;2022-07-04T03:19:29;15.80;93.10
18781;DHT22;9519;51.890;8.970;2022-07-04T03:24:33;15.80;93.20
18781;DHT22;9519;51.890;8.970;2022-07-04T03:29:35;15.80;93.40
18781;DHT22;9519;51.890;8.970;2022-07-04T03:34:37;15.90;93.50
18781;DHT22;9519;51.890;8.970;2022-07-04T03:39:40;15.90;93.50
18781;DHT22;9519;51.890;8.970;2022-07-04T03:44:42;15.90;93.70
18781;DHT22;9519;51.890;8.970;2022-07-04T03:49:44;15.90;93.80
18781;DHT22;9519;51.890;8.970;2022-07-04T03:54:48;15.90;93.90
18781;DHT22;9519;51.890;8.970;2022-07-04T03:59:50;15.90;94.10
18781;DHT22;9519;51.890;8.970;2022-07-04T04:04:55;15.90;94.30
18781;DHT22;9519;51.890;8.970;2022-07-04T04:10:16;15.90;94.40
18781;DHT22;9519;51.890;8.970;2022-07-04T04:15:18;16.00;94.70
18781;DHT22;9519;51.890;8.970;2022-07-04T04:20:21;16.00;94.80
18781;DHT22;9519;51.890;8.970;2022-07-04T04:25:24;16.00;95.00
18781;DHT22;9519;51.890;8.970;2022-07-04T04:30:27;16.00;95.30
18781;DHT22;9519;51.890;8.970;2022-07-04T04:35:29;16.10;95.60
18781;DHT22;9519;51.890;8.970;2022-07-04T04:40:33;16.10;95.90
18781;DHT22;9519;51.890;8.970;2022-07-04T04:45:35;16.20;96.30
18781;DHT22;9519;51.890;8.970;2022-07-04T04:50:37;16.20;96.90
18781;DHT22;9519;51.890;8.970;2022-07-04T04:55:41;16.30;96.70
18781;DHT22;9519;51.890;8.970;2022-07-04T05:00:43;16.30;97.00
18781;DHT22;9519;51.890;8.970;2022-07-04T05:05:45;16.40;97.20
18781;DHT22;9519;51.890;8.970;2022-07-04T05:10:49;16.40;97.40
18781;DHT22;9519;51.890;8.970;2022-07-04T05:15:51;16.40;97.50
18781;DHT22;9519;51.890;8.970;2022-07-04T05:20:53;16.50;97.50
18781;DHT22;9519;51.890;8.970;2022-07-04T05:25:56;16.50;97.50
18781;DHT22;9519;51.890;8.970;2022-07-04T05:30:59;16.50;97.60
18781;DHT22;9519;51.890;8.970;2022-07-04T05:36:01;16.60;97.60
18781;DHT22;9519;51.890;8.970;2022-07-04T05:41:05;16.60;97.60
18781;DHT22;9519;51.890;8.970;2022-07-04T05:46:07;16.70;97.70
18781;DHT22;9519;51.890;8.970;2022-07-04T05:51:09;16.80;97.70
18781;DHT22;9519;51.890;8.970;2022-07-04T05:56:13;16.90;97.70
18781;DHT22;9519;51.890;8.970;2022-07-04T06:01:15;17.00;98.10
18781;DHT22;9519;51.890;8.970;2022-07-04T06:06:17;17.10;97.80
18781;DHT22;9519;51.890;8.970;2022-07-04T06:11:21;17.20;97.90
18781;DHT22;9519;51.890;8.970;2022-07-04T06:16:23;17.30;97.90
18781;DHT22;9519;51.890;8.970;2022-07-04T06:21:25;17.40;97.90
18781;DHT22;9519;51.890;8.970;2022-07-04T06:26:29;17.40;97.70
18781;DHT22;9519;51.890;8.970;2022-07-04T06:31:34;17.40;97.70
18781;DHT22;9519;51.890;8.970;2022-07-04T06:36:36;17.50;98.00
18781;DHT22;9519;51.890;8.970;2022-07-04T06:41:40;17.60;97.80
18781;DHT22;9519;51.890;8.970;2022-07-04T06:46:42;17.60;97.50
18781;DHT22;9519;51.890;8.970;2022-07-04T06:51:44;17.60;96.80
18781;DHT22;9519;51.890;8.970;2022-07-04T06:56:48;17.60;96.60
18781;DHT22;9519;51.890;8.970;2022-07-04T07:01:53;17.70;96.80
18781;DHT22;9519;51.890;8.970;2022-07-04T07:06:55;17.70;96.30
18781;DHT22;9519;51.890;8.970;2022-07-04T07:11:58;17.80;96.20
18781;DHT22;9519;51.890;8.970;2022-07-04T07:17:00;17.80;96.00
18781;DHT22;9519;51.890;8.970;2022-07-04T07:22:03;17.80;95.60
18781;DHT22;9519;51.890;8.970;2022-07-04T07:27:07;17.90;95.10
18781;DHT22;9519;51.890;8.970;2022-07-04T07:32:09;17.90;94.70
18781;DHT22;9519;51.890;8.970;2022-07-04T07:37:12;17.90;94.40
18781;DHT22;9519;51.890;8.970;2022-07-04T07:42:15;17.90;93.70
18781;DHT22;9519;51.890;8.970;2022-07-04T07:47:17;18.00;93.30
18781;DHT22;9519;51.890;8.970;2022-07-04T07:52:19;18.00;92.90
18781;DHT22;9519;51.890;8.970;2022-07-04T07:57:23;18.20;93.20
18781;DHT22;9519;51.890;8.970;2022-07-04T08:02:25;18.30;92.50
18781;DHT22;9519;51.890;8.970;2022-07-04T08:07:41;18.40;92.40
18781;DHT22;9519;51.890;8.970;2022-07-04T08:12:45;18.50;92.30
18781;DHT22;9519;51.890;8.970;2022-07-04T08:17:47;18.60;92.30
18781;DHT22;9519;51.890;8.970;2022-07-04T08:22:49;18.70;91.80
18781;DHT22;9519;51.890;8.970;2022-07-04T08:27:53;18.80;90.80
18781;DHT22;9519;51.890;8.970;2022-07-04T08:32:55;18.80;90.80
18781;DHT22;9519;51.890;8.970;2022-07-04T08:37:57;19.00;90.70
18781;DHT22;9519;51.890;8.970;2022-07-04T08:43:01;19.20;90.90
18781;DHT22;9519;51.890;8.970;2022-07-04T08:48:08;19.40;89.40
18781;DHT22;9519;51.890;8.970;2022-07-04T08:53:12;19.50;89.70
18781;DHT22;9519;51.890;8.970;2022-07-04T08:58:18;19.60;87.30
18781;DHT22;9519;51.890;8.970;2022-07-04T09:03:34;19.50;86.90
18781;DHT22;9519;51.890;8.970;2022-07-04T09:08:37;19.50;86.70
18781;DHT22;9519;51.890;8.970;2022-07-04T09:13:41;19.60;85.60
18781;DHT22;9519;51.890;8.970;2022-07-04T09:18:44;19.80;84.60
18781;DHT22;9519;51.890;8.970;2022-07-04T09:23:46;19.90;82.40
18781;DHT22;9519;51.890;8.970;2022-07-04T09:28:53;20.00;81.40
18781;DHT22;9519;51.890;8.970;2022-07-04T09:33:58;20.10;80.80
18781;DHT22;9519;51.890;8.970;2022-07-04T09:39:06;20.30;79.60
18781;DHT22;9519;51.890;8.970;2022-07-04T09:44:14;20.30;78.60
18781;DHT22;9519;51.890;8.970;2022-07-04T09:49:16;20.30;78.70
18781;DHT22;9519;51.890;8.970;2022-07-04T09:54:21;20.20;77.30
18781;DHT22;9519;51.890;8.970;2022-07-04T09:59:30;20.30;77.00
18781;DHT22;9519;51.890;8.970;2022-07-04T10:04:41;20.40;75.80
18781;DHT22;9519;51.890;8.970;2022-07-04T10:09:45;20.60;76.40
18781;DHT22;9519;51.890;8.970;2022-07-04T10:14:49;20.70;75.70
18781;DHT22;9519;51.890;8.970;2022-07-04T10:19:51;20.80;75.40
18781;DHT22;9519;51.890;8.970;2022-07-04T10:24:54;20.90;74.60
18781;DHT22;9519;51.890;8.970;2022-07-04T10:29:58;21.10;73.30
18781;DHT22;9519;51.890;8.970;2022-07-04T10:35:01;21.10;74.00
18781;DHT22;9519;51.890;8.970;2022-07-04T10:40:04;21.20;72.80
18781;DHT22;9519;51.890;8.970;2022-07-04T10:45:28;21.30;71.90
18781;DHT22;9519;51.890;8.970;2022-07-04T10:50:33;21.40;72.80
18781;DHT22;9519;51.890;8.970;2022-07-04T10:55:36;21.50;72.10
18781;DHT22;9519;51.890;8.970;2022-07-04T11:00:43;21.60;71.00
18781;DHT22;9519;51.890;8.970;2022-07-04T11:11:56;21.80;70.90
18781;DHT22;9519;51.890;8.970;2022-07-04T11:17:01;21.90;69.90
18781;DHT22;9519;51.890;8.970;2022-07-04T11:22:04;22.00;70.60
18781;DHT22;9519;51.890;8.970;2022-07-04T11:27:08;22.10;70.30
18781;DHT22;9519;51.890;8.970;2022-07-04T11:32:11;22.30;68.40
18781;DHT22;9519;51.890;8.970;2022-07-04T11:37:15;22.40;67.30
18781;DHT22;9519;51.890;8.970;2022-07-04T11:42:17;22.40;66.90
18781;DHT22;9519;51.890;8.970;2022-07-04T11:47:40;22.50;65.20
18781;DHT22;9519;51.890;8.970;2022-07-04T11:52:44;22.40;65.20
18781;DHT22;9519;51.890;8.970;2022-07-04T11:57:49;22.50;66.60
18781;DHT22;9519;51.890;8.970;2022-07-04T12:02:58;22.60;67.00
18781;DHT22;9519;51.890;8.970;2022-07-04T12:08:02;22.70;66.00
18781;DHT22;9519;51.890;8.970;2022-07-04T12:13:10;22.70;64.70
18781;DHT22;9519;51.890;8.970;2022-07-04T12:18:20;22.80;64.80
18781;DHT22;9519;51.890;8.970;2022-07-04T12:23:23;22.80;64.10
18781;DHT22;9519;51.890;8.970;2022-07-04T12:28:35;22.90;64.50
18781;DHT22;9519;51.890;8.970;2022-07-04T12:33:39;22.90;63.50
18781;DHT22;9519;51.890;8.970;2022-07-04T12:38:41;22.80;63.10
18781;DHT22;9519;51.890;8.970;2022-07-04T12:43:47;22.80;64.40
18781;DHT22;9519;51.890;8.970;2022-07-04T12:48:52;23.00;61.90
18781;DHT22;9519;51.890;8.970;2022-07-04T12:53:57;22.90;61.50
18781;DHT22;9519;51.890;8.970;2022-07-04T12:59:02;22.90;61.60
18781;DHT22;9519;51.890;8.970;2022-07-04T13:04:08;22.80;60.00
18781;DHT22;9519;51.890;8.970;2022-07-04T13:09:10;22.70;61.10
18781;DHT22;9519;51.890;8.970;2022-07-04T13:14:12;22.80;61.00
18781;DHT22;9519;51.890;8.970;2022-07-04T13:19:16;22.90;60.90
18781;DHT22;9519;51.890;8.970;2022-07-04T13:24:18;23.00;59.10
18781;DHT22;9519;51.890;8.970;2022-07-04T13:29:21;23.10;60.20
18781;DHT22;9519;51.890;8.970;2022-07-04T13:34:25;23.20;57.60
18781;DHT22;9519;51.890;8.970;2022-07-04T13:39:27;23.40;58.10
18781;DHT22;9519;51.890;8.970;2022-07-04T13:44:30;23.60;57.00
18781;DHT22;9519;51.890;8.970;2022-07-04T13:49:33;23.70;56.50
18781;DHT22;9519;51.890;8.970;2022-07-04T13:54:35;23.60;56.90
18781;DHT22;9519;51.890;8.970;2022-07-04T13:59:37;23.70;57.10
18781;DHT22;9519;51.890;8.970;2022-07-04T14:04:41;23.80;56.40
18781;DHT22;9519;51.890;8.970;2022-07-04T14:09:43;23.80;56.40
18781;DHT22;9519;51.890;8.970;2022-07-04T14:14:45;24.00;55.60
18781;DHT22;9519;51.890;8.970;2022-07-04T14:19:49;24.10;54.30
18781;DHT22;9519;51.890;8.970;2022-07-04T14:24:51;24.10;54.60
18781;DHT22;9519;51.890;8.970;2022-07-04T14:29:53;24.30;54.90
18781;DHT22;9519;51.890;8.970;2022-07-04T14:34:57;24.50;53.80
18781;DHT22;9519;51.890;8.970;2022-07-04T14:40:01;24.50;53.70
18781;DHT22;9519;51.890;8.970;2022-07-04T14:45:04;24.40;53.40
18781;DHT22;9519;51.890;8.970;2022-07-04T14:50:09;24.40;52.60
18781;DHT22;9519;51.890;8.970;2022-07-04T14:55:12;24.40;53.50
18781;DHT22;9519;51.890;8.970;2022-07-04T15:00:15;24.40;52.30
18781;DHT22;9519;51.890;8.970;2022-07-04T15:05:19;24.30;52.40
18781;DHT22;9519;51.890;8.970;2022-07-04T15:10:21;24.10;53.10
18781;DHT22;9519;51.890;8.970;2022-07-04T15:15:24;24.20;53.00
18781;DHT22;9519;51.890;8.970;2022-07-04T15:20:28;24.40;51.90
18781;DHT22;9519;51.890;8.970;2022-07-04T15:25:47;24.80;52.50
18781;DHT22;9519;51.890;8.970;2022-07-04T15:30:49;25.30;51.80
18781;DHT22;9519;51.890;8.970;2022-07-04T15:35:54;25.60;50.60
18781;DHT22;9519;51.890;8.970;2022-07-04T15:40:57;25.40;49.10
18781;DHT22;9519;51.890;8.970;2022-07-04T15:46:00;25.20;50.00
18781;DHT22;9519;51.890;8.970;2022-07-04T15:51:03;25.30;50.40
18781;DHT22;9519;51.890;8.970;2022-07-04T15:56:06;25.80;48.90
18781;DHT22;9519;51.890;8.970;2022-07-04T16:01:08;25.90;48.10
18781;DHT22;9519;51.890;8.970;2022-07-04T16:06:12;25.80;48.60
18781;DHT22;9519;51.890;8.970;2022-07-04T16:11:14;25.80;48.40
18781;DHT22;9519;51.890;8.970;2022-07-04T16:16:16;25.80;48.70
18781;DHT22;9519;51.890;8.970;2022-07-04T16:21:20;25.70;49.50
18781;DHT22;9519;51.890;8.970;2022-07-04T16:26:22;25.80;49.10
18781;DHT22;9519;51.890;8.970;2022-07-04T16:31:24;25.70;48.60
18781;DHT22;9519;51.890;8.970;2022-07-04T16:36:28;25.50;48.40
18781;DHT22;9519;51.890;8.970;2022-07-04T16:41:31;25.50;48.90
18781;DHT22;9519;51.890;8.970;2022-07-04T16:46:33;25.60;48.10
18781;DHT22;9519;51.890;8.970;2022-07-04T16:51:37;25.30;48.00
18781;DHT22;9519;51.890;8.970;2022-07-04T16:56:39;25.10;48.80
18781;DHT22;9519;51.890;8.970;2022-07-04T17:01:41;24.80;49.40
18781;DHT22;9519;51.890;8.970;2022-07-04T17:06:45;24.70;50.10
18781;DHT22;9519;51.890;8.970;2022-07-04T17:11:47;24.90;50.60
18781;DHT22;9519;51.890;8.970;2022-07-04T17:16:49;25.10;51.20
18781;DHT22;9519;51.890;8.970;2022-07-04T17:21:53;25.40;50.40
18781;DHT22;9519;51.890;8.970;2022-07-04T17:26:55;25.50;49.90
18781;DHT22;9519;51.890;8.970;2022-07-04T17:31:58;25.50;49.70
18781;DHT22;9519;51.890;8.970;2022-07-04T17:37:02;25.30;50.10
18781;DHT22;9519;51.890;8.970;2022-07-04T17:42:04;25.10;50.60
18781;DHT22;9519;51.890;8.970;2022-07-04T17:47:06;25.20;51.20
18781;DHT22;9519;51.890;8.970;2022-07-04T17:52:10;25.60;50.70
18781;DHT22;9519;51.890;8.970;2022-07-04T17:57:12;25.80;50.30
18781;DHT22;9519;51.890;8.970;2022-07-04T18:02:15;25.80;50.40
18781;DHT22;9519;51.890;8.970;2022-07-04T18:07:19;25.60;49.90
18781;DHT22;9519;51.890;8.970;2022-07-04T18:12:21;25.10;50.10
18781;DHT22;9519;51.890;8.970;2022-07-04T18:17:25;24.70;50.80
18781;DHT22;9519;51.890;8.970;2022-07-04T18:22:28;24.40;51.60
18781;DHT22;9519;51.890;8.970;2022-07-04T18:27:30;24.20;52.40
18781;DHT22;9519;51.890;8.970;2022-07-04T18:32:32;24.20;53.10
18781;DHT22;9519;51.890;8.970;2022-07-04T18:37:36;24.40;53.40
18781;DHT22;9519;51.890;8.970;2022-07-04T18:42:38;24.50;53.70
18781;DHT22;9519;51.890;8.970;2022-07-04T18:47:58;24.60;53.60
18781;DHT22;9519;51.890;8.970;2022-07-04T18:53:01;24.60;53.90
18781;DHT22;9519;51.890;8.970;2022-07-04T18:58:03;24.50;54.30
18781;DHT22;9519;51.890;8.970;2022-07-04T19:03:06;24.40;54.60
18781;DHT22;9519;51.890;8.970;2022-07-04T19:08:10;24.30;54.80
18781;DHT22;9519;51.890;8.970;2022-07-04T19:13:13;24.10;55.00
18781;DHT22;9519;51.890;8.970;2022-07-04T19:18:15;23.90;55.50
18781;DHT22;9519;51.890;8.970;2022-07-04T19:23:18;23.70;55.80
18781;DHT22;9519;51.890;8.970;2022-07-04T19:28:21;23.50;56.30
18781;DHT22;9519;51.890;8.970;2022-07-04T19:33:24;23.30;56.50
18781;DHT22;9519;51.890;8.970;2022-07-04T19:38:29;23.10;56.80
18781;DHT22;9519;51.890;8.970;2022-07-04T19:43:31;23.00;57.10
18781;DHT22;9519;51.890;8.970;2022-07-04T19:48:33;22.80;57.30
18781;DHT22;9519;51.890;8.970;2022-07-04T19:53:37;22.50;57.80
18781;DHT22;9519;51.890;8.970;2022-07-04T19:58:40;22.30;58.20
18781;DHT22;9519;51.890;8.970;2022-07-04T20:03:42;22.20;58.30
18781;DHT22;9519;51.890;8.970;2022-07-04T20:08:45;22.00;58.80
18781;DHT22;9519;51.890;8.970;2022-07-04T20:13:47;21.90;59.30
18781;DHT22;9519;51.890;8.970;2022-07-04T20:18:50;21.80;59.60
18781;DHT22;9519;51.890;8.970;2022-07-04T20:23:53;21.60;60.00
18781;DHT22;9519;51.890;8.970;2022-07-04T20:28:55;21.50;60.70
18781;DHT22;9519;51.890;8.970;2022-07-04T20:33:58;21.40;61.20
18781;DHT22;9519;51.890;8.970;2022-07-04T20:39:03;21.20;61.60
18781;DHT22;9519;51.890;8.970;2022-07-04T20:44:05;21.10;61.90
18781;DHT22;9519;51.890;8.970;2022-07-04T20:49:07;20.90;62.10
18781;DHT22;9519;51.890;8.970;2022-07-04T20:54:11;20.80;62.80
18781;DHT22;9519;51.890;8.970;2022-07-04T20:59:14;20.60;62.90
18781;DHT22;9519;51.890;8.970;2022-07-04T21:04:16;20.50;63.50
18781;DHT22;9519;51.890;8.970;2022-07-04T21:09:19;20.20;64.30
18781;DHT22;9519;51.890;8.970;2022-07-04T21:14:22;20.00;65.70
18781;DHT22;9519;51.890;8.970;2022-07-04T21:19:24;19.60;67.00
18781;DHT22;9519;51.890;8.970;2022-07-04T21:24:28;19.30;68.00
18781;DHT22;9519;51.890;8.970;2022-07-04T21:29:30;19.10;68.80
18781;DHT22;9519;51.890;8.970;2022-07-04T21:34:32;18.90;69.50
18781;DHT22;9519;51.890;8.970;2022-07-04T21:39:36;18.70;70.10
18781;DHT22;9519;51.890;8.970;2022-07-04T21:44:38;18.60;70.50
18781;DHT22;9519;51.890;8.970;2022-07-04T21:49:40;18.40;71.00
18781;DHT22;9519;51.890;8.970;2022-07-04T21:54:44;18.30;71.20
18781;DHT22;9519;51.890;8.970;2022-07-04T21:59:46;18.20;72.00
18781;DHT22;9519;51.890;8.970;2022-07-04T22:04:48;18.10;72.30
18781;DHT22;9519;51.890;8.970;2022-07-04T22:09:53;18.00;72.50
18781;DHT22;9519;51.890;8.970;2022-07-04T22:14:56;18.00;72.90
18781;DHT22;9519;51.890;8.970;2022-07-04T22:19:58;18.00;73.20
18781;DHT22;9519;51.890;8.970;2022-07-04T22:25:02;18.00;73.30
18781;DHT22;9519;51.890;8.970;2022-07-04T22:30:06;17.90;73.60
18781;DHT22;9519;51.890;8.970;2022-07-04T22:35:13;18.00;73.90
18781;DHT22;9519;51.890;8.970;2022-07-04T22:40:18;18.00;74.00
18781;DHT22;9519;51.890;8.970;2022-07-04T22:45:20;18.00;74.40
18781;DHT22;9519;51.890;8.970;2022-07-04T22:50:23;18.00;74.50
18781;DHT22;9519;51.890;8.970;2022-07-04T22:55:26;18.00;74.90
18781;DHT22;9519;51.890;8.970;2022-07-04T23:00:28;18.00;75.20
18781;DHT22;9519;51.890;8.970;2022-07-04T23:05:30;18.00;75.30
18781;DHT22;9519;51.890;8.970;2022-07-04T23:10:34;17.90;75.40
18781;DHT22;9519;51.890;8.970;2022-07-04T23:15:36;17.90;75.80
18781;DHT22;9519;51.890;8.970;2022-07-04T23:20:38;17.80;75.90
18781;DHT22;9519;51.890;8.970;2022-07-04T23:25:42;17.80;76.20
18781;DHT22;9519;51.890;8.970;2022-07-04T23:30:44;17.80;76.60
18781;DHT22;9519;51.890;8.970;2022-07-04T23:35:46;17.70;76.90
18781;DHT22;9519;51.890;8.970;2022-07-04T23:40:51;17.60;77.30
18781;DHT22;9519;51.890;8.970;2022-07-04T23:45:53;17.60;77.60
18781;DHT22;9519;51.890;8.970;2022-07-04T23:50:55;17.50;77.80
18781;DHT22;9519;51.890;8.970;2022-07-04T23:55:59;17.40;78.10
